Sincerity Ace — 3FFD7 — position and weather

sailwx.info

Track history (hours):
 
Tides and Currents Weather Stations Pressure Air Temp Water Temp Dewpoint Dewpoint Depression Visibility Wind Speed Wind Dir Waves Ship Positions

Sincerity Ace

Last reported at 2016-May-07 23:23 UTC. Time now 2016-Jun-26 15:39 UTC.
Position N 31°06' W 081°21'.
Warning: this ship's position is 49 days out of date.

Length 200 m; draft 8.8 m.

Type: Cargo ship. MMSI: 351690000.

Date/timePositionNaut miles runAvg speedWind from/ knotsBaromVisibWave heightAir tempDewpointWater temp
2016-May-07 23:23N 31°06' W 081°21'7 8.7
2016-May-07 22:33N 31°07' W 081°29'3 0.4
2016-May-07 15:24N 31°08' W 081°32'4 4.5
2016-May-07 14:33N 31°06' W 081°28'9 9.2
2016-May-07 13:33N 31°04' W 081°17'7 7.0
2016-May-07 12:33N 31°00' W 081°11'8 7.5
2016-May-07 11:32N 30°58' W 081°02'43813.6
2016-May-06 03:26N 36°51' W 075°51'1112.1
2016-May-06 02:33N 36°59' W 076°00'6014.8
2016-May-05 22:32N 37°58' W 076°12'5117.2
2016-May-05 19:33N 38°48' W 076°25'1616.1
2016-May-05 18:33N 39°05' W 076°24'1111.4
2016-May-05 17:33N 39°14' W 076°32'1 1.0
2016-May-05 16:32N 39°14' W 076°32'0 0.0
2016-May-05 15:32N 39°14' W 076°32'0 0.0
2016-May-05 14:32N 39°14' W 076°32'0 0.0
2016-May-05 13:32N 39°14' W 076°32'0 0.0
2016-May-05 12:32N 39°14' W 076°32'0 0.0
2016-May-05 11:32N 39°14' W 076°32'0 0.0
2016-May-05 10:32N 39°14' W 076°32'0 0.0
2016-May-05 09:32N 39°14' W 076°32'0 0.0
2016-May-05 08:32N 39°14' W 076°32'0 0.0
2016-May-05 07:32N 39°14' W 076°32'0 0.0
2016-May-05 06:32N 39°14' W 076°32'0 0.0
2016-May-05 05:32N 39°14' W 076°32'0 0.0
2016-May-05 04:32N 39°14' W 076°32'0 0.0
2016-May-05 03:32N 39°14' W 076°32'0 0.0
2016-May-05 02:32N 39°14' W 076°32'2 2.5
2016-May-05 01:33N 39°12' W 076°31'1111.1
2016-May-05 00:33N 39°12' W 076°16'1312.8
2016-May-04 23:34N 39°22' W 076°07'1212.3
2016-May-04 22:34N 39°30' W 075°55'6 6.1
2016-May-04 21:33N 39°32' W 075°48'9 9.4
2016-May-04 20:33N 39°33' W 075°36'1010.0
2016-May-04 19:34N 39°24' W 075°30'1514.6
2016-May-04 18:33N 39°13' W 075°18'1515.1
2016-May-04 17:34N 39°00' W 075°08'29 9.4
2016-May-04 14:29N 38°49' W 074°34'1617.6
2016-May-04 13:33N 38°52' W 074°14'  
Track history (hours):
 
Tides and Currents Weather Stations Pressure Air Temp Water Temp Dewpoint Dewpoint Depression Visibility Wind Speed Wind Dir Waves Ship Positions

Sincerity Ace

Last reported at 2016-May-07 23:23 UTC. Time now 2016-Jun-26 15:39 UTC.
Position N 31°06' W 081°21'.
Warning: this ship's position is 49 days out of date.

Length 200 m; draft 8.8 m.

Type: Cargo ship. MMSI: 351690000.

Date/timePositionNaut miles runAvg speedWind from/ knotsBaromVisibWave heightAir tempDewpointWater temp
2016-May-07 23:23N 31°06' W 081°21'7 8.7
2016-May-07 22:33N 31°07' W 081°29'3 0.4
2016-May-07 15:24N 31°08' W 081°32'4 4.5
2016-May-07 14:33N 31°06' W 081°28'9 9.2
2016-May-07 13:33N 31°04' W 081°17'7 7.0
2016-May-07 12:33N 31°00' W 081°11'8 7.5
2016-May-07 11:32N 30°58' W 081°02'43813.6
2016-May-06 03:26N 36°51' W 075°51'1112.1
2016-May-06 02:33N 36°59' W 076°00'6014.8
2016-May-05 22:32N 37°58' W 076°12'5117.2
2016-May-05 19:33N 38°48' W 076°25'1616.1
2016-May-05 18:33N 39°05' W 076°24'1111.4
2016-May-05 17:33N 39°14' W 076°32'1 1.0
2016-May-05 16:32N 39°14' W 076°32'0 0.0
2016-May-05 15:32N 39°14' W 076°32'0 0.0
2016-May-05 14:32N 39°14' W 076°32'0 0.0
2016-May-05 13:32N 39°14' W 076°32'0 0.0
2016-May-05 12:32N 39°14' W 076°32'0 0.0
2016-May-05 11:32N 39°14' W 076°32'0 0.0
2016-May-05 10:32N 39°14' W 076°32'0 0.0
2016-May-05 09:32N 39°14' W 076°32'0 0.0
2016-May-05 08:32N 39°14' W 076°32'0 0.0
2016-May-05 07:32N 39°14' W 076°32'0 0.0
2016-May-05 06:32N 39°14' W 076°32'0 0.0
2016-May-05 05:32N 39°14' W 076°32'0 0.0
2016-May-05 04:32N 39°14' W 076°32'0 0.0
2016-May-05 03:32N 39°14' W 076°32'0 0.0
2016-May-05 02:32N 39°14' W 076°32'2 2.5
2016-May-05 01:33N 39°12' W 076°31'1111.1
2016-May-05 00:33N 39°12' W 076°16'1312.8
2016-May-04 23:34N 39°22' W 076°07'1212.3
2016-May-04 22:34N 39°30' W 075°55'6 6.1
2016-May-04 21:33N 39°32' W 075°48'9 9.4
2016-May-04 20:33N 39°33' W 075°36'1010.0
2016-May-04 19:34N 39°24' W 075°30'1514.6
2016-May-04 18:33N 39°13' W 075°18'1515.1
2016-May-04 17:34N 39°00' W 075°08'29 9.4
2016-May-04 14:29N 38°49' W 074°34'1617.6
2016-May-04 13:33N 38°52' W 074°14'  

Dump ship's entire track history